createdAt,value
2023-02-12T00:01:38.151Z,102888.91
2023-02-12T00:04:44.149Z,102887.47
2023-02-12T00:07:49.726Z,102889.84
2023-02-12T00:10:55.602Z,102888.56
2023-02-12T00:14:03.428Z,102885.22
2023-02-12T00:17:09.122Z,102879.22
2023-02-12T00:20:14.773Z,102883.75
2023-02-12T00:23:20.408Z,102884.38
2023-02-12T00:26:26.020Z,102884.47
2023-02-12T00:29:31.566Z,102887.72
2023-02-12T00:32:37.574Z,102885.78
2023-02-12T00:35:43.335Z,102890.31
2023-02-12T00:38:52.169Z,102893.31
2023-02-12T00:41:57.565Z,102888.91
2023-02-12T00:45:03.048Z,102877.78
2023-02-12T00:48:10.278Z,102887.88
2023-02-12T00:51:16.112Z,102886.81
2023-02-12T00:54:22.136Z,102889.78
2023-02-12T00:57:27.822Z,102886.03
2023-02-12T01:00:35.255Z,102890.84
2023-02-12T01:03:41.676Z,102889.06
2023-02-12T01:06:47.357Z,102889.84
2023-02-12T01:09:52.988Z,102884.88
2023-02-12T01:12:58.502Z,102883.22
2023-02-12T01:16:20.433Z,102874.78
2023-02-12T01:19:26.002Z,102862.94
2023-02-12T01:22:31.779Z,102867.72
2023-02-12T01:25:38.967Z,102876.16
2023-02-12T01:28:48.727Z,102878.78
2023-02-12T01:31:54.768Z,102873.06
2023-02-12T01:35:00.570Z,102867.88
2023-02-12T01:38:05.949Z,102870.09
2023-02-12T01:41:15.537Z,102861.28
2023-02-12T01:44:29.246Z,102849.03
2023-02-12T01:47:35.312Z,102852.53
2023-02-12T01:50:44.507Z,102850.13
2023-02-12T01:53:55.691Z,102851.59
2023-02-12T01:57:03.385Z,102852.31
2023-02-12T02:00:21.047Z,102839.97
2023-02-12T02:03:27.064Z,102839.31
2023-02-12T02:06:36.684Z,102842.44
2023-02-12T02:09:42.705Z,102841.66
2023-02-12T02:13:07.556Z,102837.91
2023-02-12T02:16:23.767Z,102841.66
2023-02-12T02:20:01.935Z,102835.69
2023-02-12T02:23:42.225Z,102844.09
2023-02-12T02:27:11.978Z,102843.50
2023-02-12T02:30:26.239Z,102833.19
2023-02-12T02:34:02.583Z,102830.34
2023-02-12T02:37:40.237Z,102808.41
2023-02-12T02:41:09.813Z,102806.44
2023-02-12T02:44:23.911Z,102796.56
2023-02-12T02:47:54.061Z,102808.28
2023-02-12T02:51:07.877Z,102802.38
2023-02-12T02:54:31.238Z,102803.44
2023-02-12T02:57:47.600Z,102790.84
2023-02-12T03:01:02.263Z,102795.66
2023-02-12T03:04:18.939Z,102795.00
2023-02-12T03:07:35.152Z,102787.34
2023-02-12T03:10:49.284Z,102793.66
2023-02-12T03:14:06.931Z,102795.03
2023-02-12T03:17:35.268Z,102797.41
2023-02-12T03:20:46.358Z,102801.34
2023-02-12T03:24:05.391Z,102787.81
2023-02-12T03:27:27.235Z,102793.06
2023-02-12T03:30:58.623Z,102797.91
2023-02-12T03:34:24.603Z,102781.50
2023-02-12T03:37:30.049Z,102779.59
2023-02-12T03:40:40.968Z,102780.69
2023-02-12T03:44:27.471Z,102774.69
2023-02-12T03:47:45.654Z,102787.81
2023-02-12T03:50:59.201Z,102775.09
2023-02-12T03:54:07.975Z,102777.47
2023-02-12T03:57:21.953Z,102786.06
2023-02-12T04:00:28.510Z,102791.25
2023-02-12T04:03:34.240Z,102792.50
2023-02-12T04:06:40.547Z,102794.78
2023-02-12T04:09:46.279Z,102798.84
2023-02-12T04:13:21.654Z,102808.31
2023-02-12T04:16:37.984Z,102807.28
2023-02-12T04:20:08.994Z,102793.94
2023-02-12T04:23:18.354Z,102801.41
2023-02-12T04:26:42.343Z,102799.97
2023-02-12T04:30:06.167Z,102791.03
2023-02-12T04:33:19.258Z,102796.63
2023-02-12T04:36:33.234Z,102796.97
2023-02-12T04:39:41.461Z,102801.56
2023-02-12T04:42:49.704Z,102801.16
2023-02-12T04:45:55.623Z,102804.75
2023-02-12T04:49:01.466Z,102803.31
2023-02-12T04:52:07.714Z,102809.50
2023-02-12T04:55:13.076Z,102798.78
2023-02-12T04:58:19.257Z,102788.78
2023-02-12T05:01:25.180Z,102799.09
2023-02-12T05:04:30.740Z,102788.97
2023-02-12T05:07:36.283Z,102788.22
2023-02-12T05:10:41.863Z,102783.16
2023-02-12T05:13:53.906Z,102780.75
2023-02-12T05:16:59.023Z,102772.84
2023-02-12T05:20:05.617Z,102771.09
2023-02-12T05:23:11.351Z,102772.97
2023-02-12T05:26:20.803Z,102774.50
2023-02-12T05:29:26.391Z,102776.00
2023-02-12T05:32:32.028Z,102774.50
2023-02-12T05:35:37.852Z,102772.97
2023-02-12T05:38:43.861Z,102762.91
2023-02-12T05:41:49.270Z,102769.81
2023-02-12T05:44:54.816Z,102775.28
2023-02-12T05:48:00.659Z,102779.13
2023-02-12T05:51:27.658Z,102784.59
2023-02-12T05:54:33.091Z,102783.78
2023-02-12T05:57:38.362Z,102788.53
2023-02-12T06:00:43.802Z,102796.03
2023-02-12T06:03:49.087Z,102789.88
2023-02-12T06:06:56.007Z,102799.88
2023-02-12T06:10:01.399Z,102821.00
2023-02-12T06:13:06.889Z,102817.63
2023-02-12T06:16:23.441Z,102829.88
2023-02-12T06:19:29.054Z,102843.66
2023-02-12T06:22:34.723Z,102843.88
2023-02-12T06:25:40.245Z,102843.47
2023-02-12T06:28:46.010Z,102838.31
2023-02-12T06:31:51.871Z,102853.53
2023-02-12T06:34:57.534Z,102855.22
2023-02-12T06:38:03.226Z,102849.34
2023-02-12T06:41:09.059Z,102853.84
2023-02-12T06:44:14.524Z,102873.13
2023-02-12T06:47:19.899Z,102879.72
2023-02-12T06:50:25.564Z,102889.16
2023-02-12T06:53:30.690Z,102888.97
2023-02-12T06:56:37.123Z,102879.38
2023-02-12T06:59:42.560Z,102879.28
2023-02-12T07:02:54.460Z,102874.72
2023-02-12T07:06:00.297Z,102872.72
2023-02-12T07:09:06.528Z,102869.59
2023-02-12T07:12:12.179Z,102865.34
2023-02-12T07:15:17.659Z,102861.66
2023-02-12T07:18:23.087Z,102858.97
2023-02-12T07:21:28.355Z,102862.41
2023-02-12T07:24:33.419Z,102883.06
2023-02-12T07:27:38.734Z,102892.22
2023-02-12T07:30:43.945Z,102884.09
2023-02-12T07:33:53.856Z,102882.94
2023-02-12T07:36:59.337Z,102892.69
2023-02-12T07:40:05.231Z,102898.03
2023-02-12T07:43:10.869Z,102902.84
2023-02-12T07:46:23.009Z,102916.09
2023-02-12T07:49:28.741Z,102931.16
2023-02-12T07:52:34.470Z,102930.78
2023-02-12T07:55:40.080Z,102942.75
2023-02-12T07:58:48.269Z,102935.50
2023-02-12T08:01:53.978Z,102947.25
2023-02-12T08:04:59.709Z,102957.06
2023-02-12T08:08:04.876Z,102955.63
2023-02-12T08:11:11.743Z,102959.22
2023-02-12T08:14:20.070Z,102959.22
2023-02-12T08:17:25.679Z,102959.59
2023-02-12T08:20:30.794Z,102959.09
2023-02-12T08:23:35.990Z,102963.50
2023-02-12T08:26:41.456Z,102964.22
2023-02-12T08:29:47.589Z,102960.72
2023-02-12T08:32:53.002Z,102953.44
2023-02-12T08:36:10.292Z,102950.19
2023-02-12T08:39:16.809Z,102961.16
2023-02-12T08:42:23.310Z,102958.25
2023-02-12T08:45:28.717Z,102950.59
2023-02-12T08:48:34.692Z,102960.88
2023-02-12T08:51:43.896Z,102953.84
2023-02-12T08:54:49.437Z,102953.34
2023-02-12T08:57:58.157Z,102954.91
2023-02-12T09:01:05.735Z,102961.72
2023-02-12T09:04:18.397Z,102959.75
2023-02-12T09:07:23.834Z,102947.88
2023-02-12T09:10:29.275Z,102967.06
2023-02-12T09:13:34.953Z,102957.72
2023-02-12T09:16:40.763Z,102954.22
2023-02-12T09:19:46.252Z,102960.25
2023-02-12T09:22:51.884Z,102959.06
2023-02-12T09:25:57.864Z,102961.75
2023-02-12T09:29:04.416Z,102969.84
2023-02-12T09:32:10.853Z,102977.38
2023-02-12T09:35:16.316Z,102974.47
2023-02-12T09:38:21.997Z,102987.16
2023-02-12T09:41:44.335Z,102984.81
2023-02-12T09:45:08.132Z,102983.69
2023-02-12T09:48:35.515Z,102994.00
2023-02-12T09:51:44.476Z,102988.44
2023-02-12T09:54:50.784Z,102992.47
2023-02-12T09:57:56.120Z,103000.78
2023-02-12T10:01:05.758Z,102998.56
2023-02-12T10:04:12.133Z,102990.88
2023-02-12T10:07:17.536Z,102996.38
2023-02-12T10:10:40.619Z,102995.50
2023-02-12T10:14:20.027Z,102992.25
2023-02-12T10:17:42.508Z,102992.63
2023-02-12T10:21:13.261Z,103006.91
2023-02-12T10:24:43.500Z,103004.13
2023-02-12T10:27:56.425Z,103004.00
2023-02-12T10:31:13.375Z,103006.22
2023-02-12T10:34:22.999Z,103003.06
2023-02-12T10:37:55.622Z,102994.06
2023-02-12T10:41:02.971Z,102989.59
2023-02-12T10:44:11.037Z,102988.75
2023-02-12T10:47:22.046Z,102985.16
2023-02-12T10:51:12.697Z,102986.34
2023-02-12T10:54:42.910Z,102977.84
2023-02-12T10:57:48.237Z,102982.84
2023-02-12T11:01:00.136Z,102976.31
2023-02-12T11:04:23.617Z,102975.03
2023-02-12T11:07:29.619Z,102967.94
2023-02-12T11:10:42.332Z,102972.81
2023-02-12T11:14:04.793Z,102982.28
2023-02-12T11:17:52.263Z,102982.53
2023-02-12T11:21:01.461Z,102985.44
2023-02-12T11:24:35.832Z,102988.00
2023-02-12T11:27:42.205Z,102986.19
2023-02-12T11:30:58.705Z,102991.38
2023-02-12T11:34:10.811Z,102998.56
2023-02-12T11:37:20.188Z,102995.22
2023-02-12T11:40:36.318Z,102992.94
2023-02-12T11:43:41.848Z,102981.78
2023-02-12T11:46:55.773Z,102987.13
2023-02-12T11:50:26.703Z,102986.63
2023-02-12T11:53:40.543Z,102985.66
2023-02-12T11:56:47.301Z,102981.84
2023-02-12T11:59:54.553Z,102987.63
2023-02-12T12:03:47.863Z,102989.13
2023-02-12T12:07:03.851Z,102988.31
2023-02-12T12:11:11.200Z,103004.63
2023-02-12T12:14:24.899Z,102996.47
2023-02-12T12:18:02.724Z,103000.09
2023-02-12T12:21:30.989Z,102992.28
2023-02-12T12:24:56.855Z,102989.28
2023-02-12T12:28:29.256Z,102986.56
2023-02-12T12:31:44.830Z,102983.25
2023-02-12T12:34:50.344Z,102984.19
2023-02-12T12:38:05.334Z,102985.50
2023-02-12T12:41:34.707Z,102974.50
2023-02-12T12:44:42.662Z,102975.50
2023-02-12T12:48:12.289Z,102967.44
2023-02-12T12:51:23.592Z,102970.22
2023-02-12T12:54:45.392Z,102969.44
2023-02-12T12:58:04.940Z,102969.38
2023-02-12T13:01:37.770Z,102963.47
2023-02-12T13:04:51.675Z,102970.97
2023-02-12T13:08:07.135Z,102967.81
2023-02-12T13:11:44.700Z,102975.47
2023-02-12T13:15:13.401Z,102966.81
2023-02-12T13:18:41.862Z,102967.66
2023-02-12T13:22:17.554Z,102966.69
2023-02-12T13:25:31.275Z,102962.00
2023-02-12T13:28:55.360Z,102957.63
2023-02-12T13:32:15.619Z,102960.34
2023-02-12T13:35:26.539Z,102959.09
2023-02-12T13:39:10.315Z,102959.41
2023-02-12T13:42:51.297Z,102956.31
2023-02-12T13:46:04.469Z,102958.19
2023-02-12T13:49:34.141Z,102957.84
2023-02-12T13:52:57.845Z,102961.63
2023-02-12T13:56:09.424Z,102966.44
2023-02-12T13:59:35.841Z,102962.09
2023-02-12T14:02:43.980Z,102959.63
2023-02-12T14:05:49.482Z,102961.00
2023-02-12T14:09:10.324Z,102961.19
2023-02-12T14:12:24.836Z,102971.38
2023-02-12T14:15:36.577Z,102965.69
2023-02-12T14:18:41.836Z,102972.06
2023-02-12T14:21:47.110Z,102963.84
2023-02-12T14:24:57.338Z,102963.13
2023-02-12T14:28:43.823Z,102970.75
2023-02-12T14:31:49.697Z,102975.00
2023-02-12T14:34:55.222Z,102975.00
2023-02-12T14:38:04.168Z,102972.25
2023-02-12T14:41:38.791Z,102981.16
2023-02-12T14:44:56.394Z,102984.75
2023-02-12T14:48:03.287Z,102987.69
2023-02-12T14:51:17.993Z,102988.97
2023-02-12T14:54:57.852Z,102989.44
2023-02-12T14:58:18.184Z,102984.75
2023-02-12T15:01:34.173Z,102987.69
2023-02-12T15:04:45.441Z,103000.81
2023-02-12T15:07:59.005Z,102995.78
2023-02-12T15:11:15.252Z,102999.00
2023-02-12T15:14:46.261Z,103002.22
2023-02-12T15:18:00.722Z,103001.41
2023-02-12T15:21:25.138Z,103007.13
2023-02-12T15:24:30.650Z,103005.34
2023-02-12T15:27:36.169Z,103000.38
2023-02-12T15:30:43.531Z,103003.78
2023-02-12T15:33:52.467Z,102994.22
2023-02-12T15:36:59.946Z,102995.28
2023-02-12T15:40:09.801Z,103001.72
2023-02-12T15:43:19.498Z,103003.78
2023-02-12T15:46:25.279Z,103000.94
2023-02-12T15:49:36.803Z,103004.63
2023-02-12T15:52:46.021Z,103010.50
2023-02-12T15:55:52.494Z,103013.41
2023-02-12T15:59:01.195Z,103010.16
2023-02-12T16:02:21.540Z,103018.00
2023-02-12T16:05:27.595Z,103020.03
2023-02-12T16:08:36.158Z,103024.88
2023-02-12T16:11:44.608Z,103023.91
2023-02-12T16:14:55.916Z,103017.94
2023-02-12T16:18:04.531Z,103028.00
2023-02-12T16:21:18.783Z,103037.66
2023-02-12T16:24:34.060Z,103030.19
2023-02-12T16:27:40.640Z,103038.22
2023-02-12T16:30:48.648Z,103041.56
2023-02-12T16:33:59.641Z,103036.56
2023-02-12T16:37:45.559Z,103046.22
2023-02-12T16:41:09.367Z,103052.53
2023-02-12T16:44:17.202Z,103057.50
2023-02-12T16:47:25.153Z,103058.97
2023-02-12T16:50:32.743Z,103057.78
2023-02-12T16:53:43.955Z,103065.59
2023-02-12T16:56:49.992Z,103067.75
2023-02-12T16:59:55.378Z,103075.34
2023-02-12T17:03:00.982Z,103082.97
2023-02-12T17:06:06.382Z,103087.78
2023-02-12T17:09:12.174Z,103085.25
2023-02-12T17:12:17.940Z,103088.50
2023-02-12T17:15:38.455Z,103094.34
2023-02-12T17:18:44.521Z,103091.00
2023-02-12T17:21:51.394Z,103100.91
2023-02-12T17:24:57.245Z,103105.00
2023-02-12T17:28:02.870Z,103105.66
2023-02-12T17:31:09.595Z,103114.31
2023-02-12T17:34:16.705Z,103107.50
2023-02-12T17:37:22.579Z,103116.50
2023-02-12T17:40:27.779Z,103123.75
2023-02-12T17:43:33.071Z,103124.06
2023-02-12T17:46:39.331Z,103126.78
2023-02-12T17:49:44.585Z,103119.78
2023-02-12T17:52:50.159Z,103117.91
2023-02-12T17:55:55.507Z,103123.38
2023-02-12T17:59:01.355Z,103135.53
2023-02-12T18:02:12.608Z,103121.66
2023-02-12T18:06:39.648Z,103134.44
2023-02-12T18:09:45.540Z,103135.44
2023-02-12T18:12:51.220Z,103137.28
2023-02-12T18:15:56.585Z,103129.94
2023-02-12T18:19:04.889Z,103142.56
2023-02-12T18:22:10.564Z,103148.50
2023-02-12T18:25:18.098Z,103146.81
2023-02-12T18:28:24.898Z,103152.41
2023-02-12T18:31:30.528Z,103155.91
2023-02-12T18:34:36.128Z,103159.41
2023-02-12T18:37:43.337Z,103157.34
2023-02-12T18:40:49.077Z,103161.94
2023-02-12T18:43:56.466Z,103174.09
2023-02-12T18:47:02.164Z,103163.53
2023-02-12T18:50:08.609Z,103165.50
2023-02-12T18:53:14.682Z,103175.41
2023-02-12T18:56:20.411Z,103183.22
2023-02-12T18:59:27.399Z,103180.81
2023-02-12T19:02:33.013Z,103185.72
2023-02-12T19:05:38.452Z,103180.28
2023-02-12T19:08:43.871Z,103193.81
2023-02-12T19:11:51.126Z,103194.38
2023-02-12T19:14:56.556Z,103193.28
2023-02-12T19:18:02.208Z,103195.06
2023-02-12T19:21:12.981Z,103193.81
2023-02-12T19:24:18.320Z,103198.56
2023-02-12T19:27:23.819Z,103207.88
2023-02-12T19:30:30.779Z,103195.75
2023-02-12T19:33:37.329Z,103199.34
2023-02-12T19:36:43.591Z,103210.81
2023-02-12T19:39:49.232Z,103210.66
2023-02-12T19:42:54.693Z,103221.94
2023-02-12T19:46:09.911Z,103220.28
2023-02-12T19:49:24.492Z,103231.84
2023-02-12T19:52:29.431Z,103224.78
2023-02-12T19:55:36.077Z,103229.78
2023-02-12T19:58:41.622Z,103230.38
2023-02-12T20:01:48.509Z,103231.06
2023-02-12T20:04:54.005Z,103244.56
2023-02-12T20:07:59.776Z,103244.56
2023-02-12T20:11:11.589Z,103246.50
2023-02-12T20:14:17.870Z,103246.94
2023-02-12T20:17:23.425Z,103234.81
2023-02-12T20:20:29.582Z,103240.66
2023-02-12T20:23:35.775Z,103240.91
2023-02-12T20:26:42.425Z,103239.69
2023-02-12T20:29:48.320Z,103247.31
2023-02-12T20:32:54.313Z,103257.22
2023-02-12T20:35:59.824Z,103253.72
2023-02-12T20:39:07.740Z,103251.22
2023-02-12T20:42:14.247Z,103254.97
2023-02-12T20:45:20.232Z,103263.44
2023-02-12T20:48:26.182Z,103271.94
2023-02-12T20:51:31.669Z,103271.94
2023-02-12T20:54:38.390Z,103264.41
2023-02-12T20:57:45.157Z,103270.00
2023-02-12T21:00:51.768Z,103273.50
2023-02-12T21:03:58.081Z,103274.03
2023-02-12T21:07:04.816Z,103272.47
2023-02-12T21:10:11.815Z,103277.50
2023-02-12T21:13:17.472Z,103264.66
2023-02-12T21:16:31.486Z,103272.34
2023-02-12T21:19:37.935Z,103281.50
2023-02-12T21:22:43.807Z,103278.06
2023-02-12T21:25:49.310Z,103284.56
2023-02-12T21:28:57.957Z,103284.81
2023-02-12T21:32:03.981Z,103285.09
2023-02-12T21:35:09.581Z,103295.75
2023-02-12T21:38:14.995Z,103293.38
2023-02-12T21:41:24.608Z,103302.69
2023-02-12T21:44:33.128Z,103300.56
2023-02-12T21:47:39.024Z,103295.06
2023-02-12T21:50:44.347Z,103299.47
2023-02-12T21:53:51.724Z,103301.34
2023-02-12T21:56:57.165Z,103308.44
2023-02-12T22:00:02.414Z,103305.31
2023-02-12T22:03:19.738Z,103304.34
2023-02-12T22:06:26.125Z,103311.31
2023-02-12T22:09:32.176Z,103310.66
2023-02-12T22:12:37.500Z,103321.09
2023-02-12T22:15:42.580Z,103311.19
2023-02-12T22:18:49.346Z,103314.31
2023-02-12T22:21:54.834Z,103319.19
2023-02-12T22:25:00.078Z,103324.31
2023-02-12T22:28:05.873Z,103319.66
2023-02-12T22:31:13.481Z,103327.00
2023-02-12T22:34:19.226Z,103322.41
2023-02-12T22:37:24.770Z,103323.16
2023-02-12T22:40:30.075Z,103314.53
2023-02-12T22:43:37.308Z,103333.41
2023-02-12T22:46:43.402Z,103330.16
2023-02-12T22:49:48.497Z,103334.50
2023-02-12T22:52:54.144Z,103333.41
2023-02-12T22:56:03.390Z,103341.75
2023-02-12T22:59:11.660Z,103343.47
2023-02-12T23:02:16.862Z,103346.63
2023-02-12T23:05:22.105Z,103348.91
2023-02-12T23:08:27.564Z,103345.13
2023-02-12T23:11:33.748Z,103355.06
2023-02-12T23:14:39.705Z,103352.25
2023-02-12T23:17:44.878Z,103351.22
2023-02-12T23:20:52.119Z,103357.44
2023-02-12T23:23:59.339Z,103356.50
2023-02-12T23:27:04.570Z,103359.41
2023-02-12T23:30:10.308Z,103359.75
2023-02-12T23:33:15.949Z,103369.53
2023-02-12T23:36:21.632Z,103364.47
2023-02-12T23:39:26.890Z,103366.81
2023-02-12T23:42:32.227Z,103362.38
2023-02-12T23:45:37.694Z,103365.13
2023-02-12T23:48:44.874Z,103362.22
2023-02-12T23:51:50.441Z,103365.38
2023-02-12T23:54:57.005Z,103358.75
2023-02-12T23:58:03.563Z,103366.19
